Time;durP1;ratioP1;P1;durP2;ratioP2;P2;SDS_P1;SDS_P2;PMS_P1;PMS_P2;Temp;Humidity;BMP_temperature;BMP_pressure;BME280_temperature;BME280_humidity;BME280_pressure;Samples;Min_cycle;Max_cycle;Signal;HPM_P1;HPM_P2
2021/05/17 00:00:14;;;;;;;;;;;9.80;99.90;;;;;;5090306;28;20280;-60
2021/05/17 00:02:40;;;;;;;;;;;9.70;99.90;;;;;;5093428;28;19919;-61
2021/05/17 00:05:06;;;;;;;;;;;9.70;99.90;;;;;;5092041;28;20284;-61
2021/05/17 00:07:32;;;;;;;;;;;9.70;99.90;;;;;;5093359;28;19908;-61
2021/05/17 00:09:58;;;;;;;;;;;9.60;99.90;;;;;;5091979;28;19919;-61
2021/05/17 00:12:24;;;;;;;;;;;9.60;99.90;;;;;;5108260;28;19969;-61
2021/05/17 00:14:50;;;;;;;;;;;9.60;99.90;;;;;;5105102;28;19916;-61
2021/05/17 00:17:16;;;;;;;;;;;9.50;99.90;;;;;;5110112;28;19994;-61
2021/05/17 00:19:42;;;;;;;;;;;9.50;99.90;;;;;;5074732;28;19954;-61
2021/05/17 00:22:08;;;;;;;;;;;9.50;99.90;;;;;;5093222;28;19912;-61
2021/05/17 00:24:34;;;;;;;;;;;9.50;99.90;;;;;;5089613;28;19908;-61
2021/05/17 00:27:00;;;;;;;;;;;9.50;99.90;;;;;;5091432;28;19911;-60
2021/05/17 00:29:26;;;;;;;;;;;9.40;99.90;;;;;;5092593;28;19913;-60
2021/05/17 00:31:52;;;;;;;;;;;9.40;99.90;;;;;;5093558;28;19919;-60
2021/05/17 00:34:18;;;;;;;;;;;9.40;99.90;;;;;;5094705;28;19930;-60
2021/05/17 00:36:44;;;;;;;;;;;9.40;99.90;;;;;;5100855;28;20368;-61
2021/05/17 00:39:10;;;;;;;;;;;9.30;99.90;;;;;;5095910;28;19908;-60
2021/05/17 00:41:36;;;;;;;;;;;9.30;99.90;;;;;;5096248;28;20388;-60
2021/05/17 00:44:02;;;;;;;;;;;9.30;99.90;;;;;;5101675;28;19919;-60
2021/05/17 00:46:28;;;;;;;;;;;9.30;99.90;;;;;;5101405;28;19916;-61
2021/05/17 00:48:54;;;;;;;;;;;9.20;99.90;;;;;;5093701;28;19961;-60
2021/05/17 00:51:20;;;;;;;;;;;9.20;99.90;;;;;;5092688;28;19919;-60
2021/05/17 00:53:46;;;;;;;;;;;9.20;99.90;;;;;;5094207;28;19923;-60
2021/05/17 00:56:12;;;;;;;;;;;9.20;99.90;;;;;;5093327;28;20280;-61
2021/05/17 00:58:39;;;;;;;;;;;9.20;99.90;;;;;;5093504;28;19915;-61
2021/05/17 01:01:05;;;;;;;;;;;9.10;99.90;;;;;;5093053;28;19912;-61
2021/05/17 01:03:31;;;;;;;;;;;9.10;99.90;;;;;;5092356;28;20375;-60
2021/05/17 01:05:57;;;;;;;;;;;9.10;99.90;;;;;;5092443;28;19904;-61
2021/05/17 01:08:23;;;;;;;;;;;9.20;99.90;;;;;;5092210;28;20258;-61
2021/05/17 01:10:49;;;;;;;;;;;9.20;99.90;;;;;;5093259;28;19908;-61
2021/05/17 01:13:15;;;;;;;;;;;9.20;99.90;;;;;;5093376;28;19927;-62
2021/05/17 01:15:41;;;;;;;;;;;9.30;99.90;;;;;;5092324;28;19904;-61
2021/05/17 01:18:07;;;;;;;;;;;9.30;99.90;;;;;;5093074;28;19912;-60
2021/05/17 01:20:34;;;;;;;;;;;9.30;99.90;;;;;;5091820;28;19904;-60
2021/05/17 01:23:18;;;;;;;;;;;9.30;99.90;;;;;;5091920;28;20384;-60
2021/05/17 01:25:44;;;;;;;;;;;9.30;99.90;;;;;;5093483;28;19915;-60
2021/05/17 01:28:10;;;;;;;;;;;9.30;99.90;;;;;;5093128;28;20272;-60
2021/05/17 01:30:36;;;;;;;;;;;9.30;99.90;;;;;;5092844;28;19919;-60
2021/05/17 01:33:02;;;;;;;;;;;9.30;99.90;;;;;;5092708;28;19916;-61
2021/05/17 01:35:28;;;;;;;;;;;9.40;99.90;;;;;;5090907;28;19912;-60
2021/05/17 01:37:54;;;;;;;;;;;9.40;99.90;;;;;;5092495;28;19916;-60
2021/05/17 01:40:20;;;;;;;;;;;9.40;99.90;;;;;;5091275;28;19915;-61
2021/05/17 01:42:46;;;;;;;;;;;9.30;99.90;;;;;;5092878;28;20348;-61
2021/05/17 01:45:12;;;;;;;;;;;9.30;99.90;;;;;;5092606;28;19908;-61
2021/05/17 01:47:41;;;;;;;;;;;9.30;99.90;;;;;;5092018;28;19926;-60
2021/05/17 01:50:08;;;;;;;;;;;9.30;99.90;;;;;;5091819;28;19920;-61
2021/05/17 01:52:37;;;;;;;;;;;9.30;99.90;;;;;;5091170;28;20265;-60
2021/05/17 01:55:06;;;;;;;;;;;9.30;99.90;;;;;;5091357;28;20360;-60
2021/05/17 01:57:32;;;;;;;;;;;9.30;99.90;;;;;;5102410;28;20349;-60
2021/05/17 01:59:59;;;;;;;;;;;9.30;99.90;;;;;;5103338;28;20014;-60
2021/05/17 02:02:25;;;;;;;;;;;9.30;99.90;;;;;;5100749;28;19904;-60
2021/05/17 02:04:52;;;;;;;;;;;9.20;99.90;;;;;;5092236;28;19912;-60
2021/05/17 02:07:18;;;;;;;;;;;9.20;99.90;;;;;;5103148;28;20364;-60
2021/05/17 02:09:44;;;;;;;;;;;9.20;99.90;;;;;;5101514;28;19917;-61
2021/05/17 02:12:10;;;;;;;;;;;9.20;99.90;;;;;;5101715;28;19915;-60
2021/05/17 02:14:36;;;;;;;;;;;9.20;99.90;;;;;;5098845;28;19923;-60
2021/05/17 02:17:02;;;;;;;;;;;9.20;99.90;;;;;;5094992;28;20319;-60
2021/05/17 02:19:28;;;;;;;;;;;9.20;99.90;;;;;;5093242;28;20280;-61
2021/05/17 02:21:54;;;;;;;;;;;9.20;99.90;;;;;;5095026;28;19912;-60
2021/05/17 02:24:20;;;;;;;;;;;9.20;99.90;;;;;;5093270;28;19915;-60
2021/05/17 02:26:46;;;;;;;;;;;9.20;99.90;;;;;;5099101;28;19907;-61
2021/05/17 02:29:12;;;;;;;;;;;9.20;99.90;;;;;;5094417;28;19944;-61
2021/05/17 02:31:38;;;;;;;;;;;9.20;99.90;;;;;;5095747;28;19920;-61
2021/05/17 02:34:04;;;;;;;;;;;9.10;99.90;;;;;;5093279;28;19923;-61
2021/05/17 02:36:30;;;;;;;;;;;9.10;99.90;;;;;;5094653;28;19916;-61
2021/05/17 02:38:56;;;;;;;;;;;9.20;99.90;;;;;;5098539;28;19904;-61
2021/05/17 02:41:22;;;;;;;;;;;9.20;99.90;;;;;;5091947;28;19912;-61
2021/05/17 02:43:48;;;;;;;;;;;9.20;99.90;;;;;;5100159;28;19915;-61
2021/05/17 02:46:15;;;;;;;;;;;9.20;99.90;;;;;;5095441;28;19908;-60
2021/05/17 02:48:41;;;;;;;;;;;9.20;99.90;;;;;;5095009;28;19915;-61
2021/05/17 02:51:10;;;;;;;;;;;9.20;99.90;;;;;;5094197;28;19904;-60
2021/05/17 02:53:37;;;;;;;;;;;9.10;99.90;;;;;;5094900;28;19923;-60
2021/05/17 02:56:08;;;;;;;;;;;9.10;99.90;;;;;;5094249;28;19908;-60
2021/05/17 02:58:38;;;;;;;;;;;9.10;99.90;;;;;;5099717;28;19915;-60
2021/05/17 03:01:20;;;;;;;;;;;9.10;99.90;;;;;;5095002;28;19919;-60
2021/05/17 03:03:49;;;;;;;;;;;9.10;99.90;;;;;;5094917;28;20388;-60
2021/05/17 03:06:35;;;;;;;;;;;9.10;99.90;;;;;;5093396;28;19915;-60
2021/05/17 03:09:05;;;;;;;;;;;9.20;99.90;;;;;;5099255;28;19907;-61
2021/05/17 03:11:31;;;;;;;;;;;9.20;99.90;;;;;;5107472;28;20352;-61
2021/05/17 03:13:57;;;;;;;;;;;9.20;99.90;;;;;;5107845;28;19920;-61
2021/05/17 03:16:24;;;;;;;;;;;9.30;99.90;;;;;;5099447;28;19938;-61
2021/05/17 03:18:50;;;;;;;;;;;9.30;99.90;;;;;;5104022;28;20383;-61
2021/05/17 03:21:17;;;;;;;;;;;9.30;99.90;;;;;;5101942;28;19912;-61
2021/05/17 03:23:43;;;;;;;;;;;9.40;99.90;;;;;;5097664;28;20678;-61
2021/05/17 03:26:09;;;;;;;;;;;9.40;99.90;;;;;;5102511;28;19919;-61
2021/05/17 03:28:35;;;;;;;;;;;9.40;99.90;;;;;;5082240;28;19915;-61
2021/05/17 03:31:00;;;;;;;;;;;9.40;99.90;;;;;;5094120;28;19981;-61
2021/05/17 03:33:26;;;;;;;;;;;9.50;99.90;;;;;;5093834;28;19939;-61
2021/05/17 03:35:52;;;;;;;;;;;9.50;99.90;;;;;;5099046;28;19918;-61
2021/05/17 03:38:18;;;;;;;;;;;9.50;99.90;;;;;;5097663;28;19922;-60
2021/05/17 03:40:44;;;;;;;;;;;9.50;99.90;;;;;;5094169;28;19908;-60
2021/05/17 03:43:10;;;;;;;;;;;9.50;99.90;;;;;;5100522;28;19912;-61
2021/05/17 03:45:36;;;;;;;;;;;9.50;99.90;;;;;;5094154;28;19920;-61
2021/05/17 03:48:02;;;;;;;;;;;9.60;99.90;;;;;;5100099;28;19919;-58
2021/05/17 03:50:28;;;;;;;;;;;9.60;99.90;;;;;;5100718;28;19922;-59
2021/05/17 03:52:54;;;;;;;;;;;9.60;99.90;;;;;;5103458;28;20364;-58
2021/05/17 03:55:20;;;;;;;;;;;9.60;99.90;;;;;;5102991;28;19915;-58
2021/05/17 03:57:46;;;;;;;;;;;9.60;99.90;;;;;;5093640;28;19923;-58
2021/05/17 04:00:13;;;;;;;;;;;9.60;99.90;;;;;;5093229;28;19919;-59
2021/05/17 04:02:40;;;;;;;;;;;9.60;99.90;;;;;;5096153;28;19915;-58
2021/05/17 04:15:33;;;;;;;;;;;9.70;99.90;;;;;;5100870;28;19919;-58
2021/05/17 04:17:59;;;;;;;;;;;9.70;99.90;;;;;;5094616;28;19904;-58
2021/05/17 04:20:25;;;;;;;;;;;9.80;99.90;;;;;;5094088;28;20364;-58
2021/05/17 04:22:51;;;;;;;;;;;9.80;99.90;;;;;;5094480;28;19904;-58
2021/05/17 04:25:17;;;;;;;;;;;9.80;99.90;;;;;;5094507;28;19908;-58
2021/05/17 04:27:43;;;;;;;;;;;9.90;99.90;;;;;;5094033;28;19911;-58
2021/05/17 04:30:10;;;;;;;;;;;9.90;99.90;;;;;;5094232;28;19908;-58
2021/05/17 04:32:36;;;;;;;;;;;9.90;99.90;;;;;;5092113;28;20285;-58
2021/05/17 04:35:02;;;;;;;;;;;9.90;99.90;;;;;;5093791;28;19916;-58
2021/05/17 04:37:28;;;;;;;;;;;9.90;99.90;;;;;;5093086;28;20369;-59
2021/05/17 04:39:54;;;;;;;;;;;10.00;99.90;;;;;;5093925;28;19915;-58
2021/05/17 04:42:20;;;;;;;;;;;10.00;99.90;;;;;;5094165;28;19937;-58
2021/05/17 04:44:45;;;;;;;;;;;10.00;99.90;;;;;;5092176;28;19969;-58
2021/05/17 04:47:12;;;;;;;;;;;10.00;99.90;;;;;;5093233;28;19927;-65
2021/05/17 04:49:37;;;;;;;;;;;10.10;99.90;;;;;;5103064;27;20356;-66
2021/05/17 04:52:04;;;;;;;;;;;10.10;99.90;;;;;;5101259;28;19926;-65
2021/05/17 04:54:29;;;;;;;;;;;10.10;99.90;;;;;;5102440;28;19916;-65
2021/05/17 04:56:55;;;;;;;;;;;10.10;99.90;;;;;;5100724;28;19911;-65
2021/05/17 04:59:21;;;;;;;;;;;10.10;99.90;;;;;;5111190;27;19908;-66
2021/05/17 05:01:47;;;;;;;;;;;10.10;99.90;;;;;;5113841;28;19908;-66
2021/05/17 05:04:13;;;;;;;;;;;10.10;99.90;;;;;;5113639;28;20276;-65
2021/05/17 05:06:39;;;;;;;;;;;10.10;99.90;;;;;;5112289;28;19908;-65
2021/05/17 05:09:05;;;;;;;;;;;10.10;99.90;;;;;;5114165;28;20276;-65
2021/05/17 05:11:31;;;;;;;;;;;10.10;99.90;;;;;;5113816;28;19907;-68
2021/05/17 05:13:57;;;;;;;;;;;10.10;99.90;;;;;;5113509;28;20338;-66
2021/05/17 05:16:23;;;;;;;;;;;10.10;99.90;;;;;;5093953;28;19908;-66
2021/05/17 05:18:49;;;;;;;;;;;10.10;99.90;;;;;;5093255;28;19931;-65
2021/05/17 05:21:15;;;;;;;;;;;10.10;99.90;;;;;;5090860;28;20373;-66
2021/05/17 05:23:41;;;;;;;;;;;10.20;99.90;;;;;;5092687;28;19915;-67
2021/05/17 05:33:57;;;;;;;;;;;10.20;99.90;;;;;;5099543;28;19924;-64
2021/05/17 05:36:24;;;;;;;;;;;10.30;99.90;;;;;;5093218;28;19920;-66
2021/05/17 05:38:50;;;;;;;;;;;10.30;99.90;;;;;;5092897;28;19916;-66
2021/05/17 05:41:16;;;;;;;;;;;10.40;99.90;;;;;;5093174;28;19908;-66
2021/05/17 05:43:42;;;;;;;;;;;10.40;99.90;;;;;;5092716;28;19912;-66
2021/05/17 05:46:08;;;;;;;;;;;10.40;99.90;;;;;;5093135;28;19908;-66
2021/05/17 05:48:46;;;;;;;;;;;10.40;99.90;;;;;;5091462;28;19923;-67
2021/05/17 05:51:13;;;;;;;;;;;10.40;99.90;;;;;;5092907;28;20277;-66
2021/05/17 05:53:39;;;;;;;;;;;10.40;99.90;;;;;;5092475;28;19927;-67
2021/05/17 05:56:05;;;;;;;;;;;10.50;99.90;;;;;;5093016;28;19904;-68
2021/05/17 05:58:31;;;;;;;;;;;10.50;99.90;;;;;;5093042;28;19952;-68
2021/05/17 06:00:57;;;;;;;;;;;10.50;99.90;;;;;;5092704;28;20010;-68
2021/05/17 06:03:23;;;;;;;;;;;10.50;99.90;;;;;;5091289;28;19971;-68
2021/05/17 06:05:49;;;;;;;;;;;10.50;99.90;;;;;;5093235;28;19923;-68
2021/05/17 06:08:15;;;;;;;;;;;10.50;99.90;;;;;;5093419;28;19922;-68
2021/05/17 06:10:41;;;;;;;;;;;10.60;99.90;;;;;;5092560;28;19945;-68
2021/05/17 06:13:07;;;;;;;;;;;10.60;99.90;;;;;;5089980;28;19920;-67
2021/05/17 06:15:33;;;;;;;;;;;10.60;99.90;;;;;;5093975;28;19916;-67
2021/05/17 06:17:59;;;;;;;;;;;10.70;99.90;;;;;;5094622;28;19935;-67
2021/05/17 06:20:25;;;;;;;;;;;10.80;99.90;;;;;;5095829;28;20288;-68
2021/05/17 06:22:51;;;;;;;;;;;10.80;99.90;;;;;;5095859;28;19912;-68
2021/05/17 06:25:17;;;;;;;;;;;10.90;99.90;;;;;;5090151;28;19922;-67
2021/05/17 06:27:43;;;;;;;;;;;10.90;99.90;;;;;;5098095;28;20292;-67
2021/05/17 06:30:10;;;;;;;;;;;10.90;99.90;;;;;;5095374;28;19916;-65
2021/05/17 06:32:37;;;;;;;;;;;10.90;99.90;;;;;;5095197;28;19923;-67
2021/05/17 06:35:03;;;;;;;;;;;10.90;99.90;;;;;;5095311;28;19924;-68
2021/05/17 06:37:29;;;;;;;;;;;10.90;99.90;;;;;;5095152;28;19931;-67
2021/05/17 06:39:55;;;;;;;;;;;11.00;99.90;;;;;;5093696;28;19912;-67
2021/05/17 06:42:21;;;;;;;;;;;11.00;99.90;;;;;;5091656;28;20352;-68
2021/05/17 06:44:47;;;;;;;;;;;11.00;99.90;;;;;;5094495;28;19908;-68
2021/05/17 06:47:13;;;;;;;;;;;11.00;99.90;;;;;;5093670;28;19908;-68
2021/05/17 06:49:39;;;;;;;;;;;11.00;99.90;;;;;;5101454;28;20336;-68
2021/05/17 06:52:06;;;;;;;;;;;11.00;99.90;;;;;;5103369;28;20052;-68
2021/05/17 06:54:32;;;;;;;;;;;11.10;99.90;;;;;;5104053;28;20371;-67
2021/05/17 06:59:27;;;;;;;;;;;11.10;99.90;;;;;;5103161;28;19911;-67
2021/05/17 07:01:55;;;;;;;;;;;11.10;99.90;;;;;;5101105;28;20328;-67
2021/05/17 07:04:21;;;;;;;;;;;11.10;99.90;;;;;;5091864;28;19910;-68
2021/05/17 07:06:54;;;;;;;;;;;11.10;99.90;;;;;;5094159;28;19908;-67
2021/05/17 07:12:11;;;;;;;;;;;11.20;99.90;;;;;;5095454;28;19919;-67
2021/05/17 07:14:37;;;;;;;;;;;11.30;99.90;;;;;;5095351;28;19927;-66
2021/05/17 07:17:03;;;;;;;;;;;11.30;99.90;;;;;;5095178;28;19904;-67
2021/05/17 07:19:29;;;;;;;;;;;11.30;99.90;;;;;;5094843;28;19911;-67
2021/05/17 07:24:39;;;;;;;;;;;11.40;99.90;;;;;;5101990;28;19935;-67
2021/05/17 07:27:05;;;;;;;;;;;11.30;99.90;;;;;;5094858;28;20280;-66
2021/05/17 07:29:36;;;;;;;;;;;11.30;99.90;;;;;;5094951;28;19908;-67
2021/05/17 07:32:02;;;;;;;;;;;11.30;99.90;;;;;;5094817;28;19908;-66
2021/05/17 07:34:30;;;;;;;;;;;11.30;99.90;;;;;;5094463;28;19912;-67
2021/05/17 07:36:56;;;;;;;;;;;11.30;99.90;;;;;;5094812;28;20361;-68
2021/05/17 07:39:22;;;;;;;;;;;11.30;99.90;;;;;;5095088;28;19916;-67
2021/05/17 07:41:48;;;;;;;;;;;11.30;99.90;;;;;;5094931;28;19957;-67
2021/05/17 07:44:13;;;;;;;;;;;11.20;99.90;;;;;;5092198;28;19912;-67
2021/05/17 07:46:39;;;;;;;;;;;11.20;99.90;;;;;;5093328;28;19922;-67
2021/05/17 07:51:37;;;;;;;;;;;11.30;99.90;;;;;;5107031;28;21440;-68
2021/05/17 07:54:03;;;;;;;;;;;11.20;99.90;;;;;;5109524;28;19912;-69
2021/05/17 07:56:30;;;;;;;;;;;11.20;99.90;;;;;;5094649;28;19912;-70
2021/05/17 07:58:56;;;;;;;;;;;11.10;99.90;;;;;;5093678;28;19915;-68
2021/05/17 08:01:22;;;;;;;;;;;11.20;99.90;;;;;;5091809;28;20006;-68
2021/05/17 08:03:48;;;;;;;;;;;11.20;99.90;;;;;;5088809;28;19912;-68
2021/05/17 08:06:14;;;;;;;;;;;11.20;99.90;;;;;;5092833;28;19912;-69
2021/05/17 08:08:40;;;;;;;;;;;11.20;99.90;;;;;;5093373;28;19915;-69
2021/05/17 08:11:06;;;;;;;;;;;11.30;99.90;;;;;;5094181;28;20250;-69
2021/05/17 08:13:32;;;;;;;;;;;11.40;99.90;;;;;;5093025;28;19981;-69
2021/05/17 08:15:58;;;;;;;;;;;11.30;99.90;;;;;;5091942;28;19916;-64
2021/05/17 08:18:24;;;;;;;;;;;11.40;99.90;;;;;;5093993;28;19908;-62
2021/05/17 08:20:50;;;;;;;;;;;11.30;99.90;;;;;;5094305;28;19965;-59
2021/05/17 08:23:19;;;;;;;;;;;11.30;99.90;;;;;;5092749;28;19908;-60
2021/05/17 08:25:45;;;;;;;;;;;11.20;99.90;;;;;;5092641;28;19908;-60
2021/05/17 08:28:11;;;;;;;;;;;11.20;99.90;;;;;;5093891;28;19967;-60
2021/05/17 08:30:46;;;;;;;;;;;11.20;99.90;;;;;;5093762;28;19908;-60
2021/05/17 08:33:12;;;;;;;;;;;11.20;99.90;;;;;;5073582;28;19916;-60
2021/05/17 08:35:39;;;;;;;;;;;11.30;99.90;;;;;;5072599;28;19912;-58
2021/05/17 08:38:04;;;;;;;;;;;11.20;99.90;;;;;;5072920;28;19909;-59
2021/05/17 08:40:37;;;;;;;;;;;11.20;99.90;;;;;;5086899;28;20422;-59
2021/05/17 08:43:03;;;;;;;;;;;11.30;99.90;;;;;;5094020;28;19912;-59
2021/05/17 08:45:29;;;;;;;;;;;11.40;99.90;;;;;;5093423;28;19916;-59
2021/05/17 08:47:55;;;;;;;;;;;11.60;99.90;;;;;;5092488;28;19912;-59
2021/05/17 08:50:21;;;;;;;;;;;11.50;99.90;;;;;;5093562;28;19905;-59
2021/05/17 08:52:47;;;;;;;;;;;11.20;99.90;;;;;;5093722;28;19908;-59
2021/05/17 08:55:13;;;;;;;;;;;11.20;99.90;;;;;;5093218;28;20006;-60
2021/05/17 08:57:43;;;;;;;;;;;11.30;99.90;;;;;;5091036;28;20396;-60
2021/05/17 09:00:09;;;;;;;;;;;11.50;99.90;;;;;;5093391;28;19908;-59
2021/05/17 09:02:35;;;;;;;;;;;11.50;99.90;;;;;;5093296;28;19912;-59
2021/05/17 09:05:29;;;;;;;;;;;11.40;99.90;;;;;;5093322;28;19961;-59
2021/05/17 09:07:57;;;;;;;;;;;11.30;99.90;;;;;;5071128;28;19916;-59
2021/05/17 09:10:36;;;;;;;;;;;11.30;99.90;;;;;;5071946;28;19904;-59
2021/05/17 09:13:02;;;;;;;;;;;11.30;99.90;;;;;;5071454;28;19913;-61
2021/05/17 09:15:35;;;;;;;;;;;11.40;99.90;;;;;;5073072;28;19912;-60
2021/05/17 09:18:05;;;;;;;;;;;11.60;99.90;;;;;;5072349;28;19916;-59
2021/05/17 09:20:40;;;;;;;;;;;11.50;99.90;;;;;;5076632;28;19915;-60
2021/05/17 09:23:16;;;;;;;;;;;11.60;99.90;;;;;;5092800;28;20299;-60
2021/05/17 09:26:01;;;;;;;;;;;11.80;99.90;;;;;;5093122;28;19908;-59
2021/05/17 09:28:36;;;;;;;;;;;11.70;99.90;;;;;;5092827;28;20353;-60
2021/05/17 09:31:04;;;;;;;;;;;11.50;99.90;;;;;;5092568;28;19908;-60
2021/05/17 09:33:39;;;;;;;;;;;11.50;99.90;;;;;;5111307;28;19915;-60
2021/05/17 09:36:06;;;;;;;;;;;11.50;99.90;;;;;;5104856;28;19990;-59
2021/05/17 09:38:32;;;;;;;;;;;11.70;99.90;;;;;;5093161;28;20372;-59
2021/05/17 09:41:05;;;;;;;;;;;11.90;99.90;;;;;;5092264;28;20003;-59
2021/05/17 09:43:32;;;;;;;;;;;11.90;99.90;;;;;;5093288;28;20256;-58
2021/05/17 09:45:58;;;;;;;;;;;12.00;99.90;;;;;;5092631;28;19919;-59
2021/05/17 09:48:25;;;;;;;;;;;11.80;99.90;;;;;;5092912;28;19916;-59
2021/05/17 09:50:54;;;;;;;;;;;11.70;99.90;;;;;;5092598;28;19912;-59
2021/05/17 09:53:21;;;;;;;;;;;11.60;99.90;;;;;;5096437;28;19908;-59
2021/05/17 09:55:47;;;;;;;;;;;11.60;99.90;;;;;;5095742;28;19920;-59
2021/05/17 09:58:24;;;;;;;;;;;11.60;99.90;;;;;;5095936;28;19939;-60
2021/05/17 10:01:02;;;;;;;;;;;11.70;99.90;;;;;;5092604;28;19927;-60
2021/05/17 10:03:32;;;;;;;;;;;11.70;99.90;;;;;;5095682;28;19916;-59
2021/05/17 10:05:58;;;;;;;;;;;11.80;99.90;;;;;;5096268;28;20349;-60
2021/05/17 10:08:24;;;;;;;;;;;11.80;99.90;;;;;;5096597;28;19920;-60
2021/05/17 10:10:50;;;;;;;;;;;11.80;99.90;;;;;;5098395;28;19912;-61
2021/05/17 10:13:16;;;;;;;;;;;11.80;99.90;;;;;;5110716;28;19912;-60
2021/05/17 10:15:42;;;;;;;;;;;11.80;99.90;;;;;;5110173;28;20352;-60
2021/05/17 10:18:08;;;;;;;;;;;11.70;99.90;;;;;;5115017;28;19903;-60
2021/05/17 10:20:34;;;;;;;;;;;11.70;99.90;;;;;;5116665;28;19908;-60
2021/05/17 10:23:00;;;;;;;;;;;11.60;99.90;;;;;;5102439;28;19919;-60
2021/05/17 10:25:30;;;;;;;;;;;11.60;99.90;;;;;;5095687;28;19919;-60
2021/05/17 10:27:59;;;;;;;;;;;11.60;99.90;;;;;;5090283;28;19915;-60
2021/05/17 10:30:26;;;;;;;;;;;11.60;99.90;;;;;;5094732;28;19908;-59
2021/05/17 10:32:54;;;;;;;;;;;11.60;99.90;;;;;;5095900;28;19912;-59
2021/05/17 10:35:21;;;;;;;;;;;11.60;99.90;;;;;;5086371;28;19920;-59
2021/05/17 10:37:47;;;;;;;;;;;11.50;99.90;;;;;;5095734;28;19916;-59
2021/05/17 10:40:31;;;;;;;;;;;11.50;99.90;;;;;;5095121;28;19912;-60
2021/05/17 10:43:07;;;;;;;;;;;11.50;99.90;;;;;;5096203;28;19912;-60
2021/05/17 10:48:19;;;;;;;;;;;11.60;99.90;;;;;;5102214;28;19908;-60
2021/05/17 10:50:47;;;;;;;;;;;11.50;99.90;;;;;;5096004;28;19908;-60
2021/05/17 10:53:31;;;;;;;;;;;11.40;99.90;;;;;;5095733;28;19904;-60
2021/05/17 10:55:57;;;;;;;;;;;11.40;99.90;;;;;;5095537;28;19912;-60
2021/05/17 11:01:33;;;;;;;;;;;11.20;99.90;;;;;;5101539;28;19911;-58
2021/05/17 11:04:18;;;;;;;;;;;11.20;99.90;;;;;;5094606;28;19908;-58
2021/05/17 11:06:47;;;;;;;;;;;11.10;99.90;;;;;;5095764;28;20395;-59
2021/05/17 11:09:13;;;;;;;;;;;11.20;99.90;;;;;;5093730;28;19908;-59
2021/05/17 11:11:39;;;;;;;;;;;11.20;99.90;;;;;;5095773;28;19912;-59
2021/05/17 11:14:20;;;;;;;;;;;11.30;99.90;;;;;;5095344;28;19912;-59
2021/05/17 11:16:58;;;;;;;;;;;11.40;99.90;;;;;;5095600;28;19904;-59
2021/05/17 11:19:24;;;;;;;;;;;11.80;99.90;;;;;;5092883;28;19912;-59
2021/05/17 11:21:57;;;;;;;;;;;11.90;99.90;;;;;;5095488;28;19915;-60
2021/05/17 11:24:23;;;;;;;;;;;11.90;99.90;;;;;;5095491;28;19935;-59
2021/05/17 11:26:50;;;;;;;;;;;11.70;99.90;;;;;;5094179;28;19908;-59
2021/05/17 11:29:27;;;;;;;;;;;11.60;99.90;;;;;;5094085;28;19908;-59
2021/05/17 11:31:59;;;;;;;;;;;11.60;99.90;;;;;;5095375;28;20265;-60
2021/05/17 11:34:26;;;;;;;;;;;11.50;99.90;;;;;;5093722;28;19915;-59
2021/05/17 11:36:53;;;;;;;;;;;11.50;99.90;;;;;;5094920;28;19927;-59
2021/05/17 11:39:34;;;;;;;;;;;11.50;99.90;;;;;;5094214;28;19918;-59
2021/05/17 11:42:01;;;;;;;;;;;11.60;99.90;;;;;;5093636;28;19916;-59
2021/05/17 11:44:35;;;;;;;;;;;11.70;99.90;;;;;;5094836;28;19904;-60
2021/05/17 11:47:04;;;;;;;;;;;11.70;99.90;;;;;;5095268;28;19904;-60
2021/05/17 11:49:31;;;;;;;;;;;11.80;99.90;;;;;;5093903;28;20276;-59
2021/05/17 11:51:57;;;;;;;;;;;11.80;99.90;;;;;;5094579;28;19908;-59
2021/05/17 11:54:24;;;;;;;;;;;11.70;99.90;;;;;;5094468;28;19913;-59
2021/05/17 11:56:53;;;;;;;;;;;11.70;99.90;;;;;;5094021;28;19931;-59
2021/05/17 11:59:20;;;;;;;;;;;11.80;99.90;;;;;;5094303;28;20408;-60
2021/05/17 12:01:47;;;;;;;;;;;11.70;99.90;;;;;;5093647;28;19903;-59
2021/05/17 12:04:13;;;;;;;;;;;11.70;99.90;;;;;;5094644;28;19908;-59
2021/05/17 12:06:43;;;;;;;;;;;11.80;99.90;;;;;;5093266;28;19931;-59
2021/05/17 12:09:09;;;;;;;;;;;11.80;99.90;;;;;;5094253;28;19911;-59
2021/05/17 12:11:46;;;;;;;;;;;11.80;99.90;;;;;;5092897;28;19911;-58
2021/05/17 12:14:12;;;;;;;;;;;11.80;99.90;;;;;;5093808;28;19908;-59
2021/05/17 12:16:38;;;;;;;;;;;11.90;99.90;;;;;;5094182;28;20399;-59
2021/05/17 12:19:04;;;;;;;;;;;12.10;99.90;;;;;;5094465;28;19915;-59
2021/05/17 12:21:30;;;;;;;;;;;12.10;99.90;;;;;;5093132;28;19957;-59
2021/05/17 12:23:56;;;;;;;;;;;12.00;99.90;;;;;;5093954;28;19913;-59
2021/05/17 12:26:22;;;;;;;;;;;12.10;99.90;;;;;;5093500;28;19919;-58
2021/05/17 12:28:55;;;;;;;;;;;12.20;99.90;;;;;;5094114;28;19908;-59
2021/05/17 12:31:24;;;;;;;;;;;12.30;99.90;;;;;;5092827;28;19908;-59
2021/05/17 12:33:57;;;;;;;;;;;12.40;99.90;;;;;;5111062;27;19912;-59
2021/05/17 12:36:23;;;;;;;;;;;12.60;99.90;;;;;;5110759;28;19934;-59
2021/05/17 12:38:48;;;;;;;;;;;12.50;99.90;;;;;;5111005;28;19915;-59
2021/05/17 12:41:33;;;;;;;;;;;12.60;99.90;;;;;;5111101;28;19965;-59
2021/05/17 12:43:59;;;;;;;;;;;12.70;99.90;;;;;;5110315;28;19916;-59
2021/05/17 12:46:28;;;;;;;;;;;12.90;99.90;;;;;;5110608;28;20391;-59
2021/05/17 12:48:56;;;;;;;;;;;12.90;99.90;;;;;;5110895;28;20269;-59
2021/05/17 12:51:23;;;;;;;;;;;13.00;99.90;;;;;;5110821;28;19908;-60
2021/05/17 12:53:49;;;;;;;;;;;13.00;99.90;;;;;;5110170;28;20324;-59
2021/05/17 12:56:28;;;;;;;;;;;13.10;99.90;;;;;;5110494;28;19912;-59
2021/05/17 12:58:54;;;;;;;;;;;13.30;99.90;;;;;;5110819;28;19912;-59
2021/05/17 13:01:21;;;;;;;;;;;13.70;99.90;;;;;;5110760;28;19912;-60
2021/05/17 13:03:47;;;;;;;;;;;13.90;99.90;;;;;;5108458;28;20280;-59
2021/05/17 13:06:22;;;;;;;;;;;14.00;99.90;;;;;;5110742;28;19908;-59
2021/05/17 13:08:52;;;;;;;;;;;13.90;99.90;;;;;;5110269;28;19908;-59
2021/05/17 13:11:22;;;;;;;;;;;14.20;99.90;;;;;;5110559;28;19912;-59
2021/05/17 13:13:58;;;;;;;;;;;14.30;99.90;;;;;;5107847;28;19931;-60
2021/05/17 13:16:28;;;;;;;;;;;14.50;99.90;;;;;;5093098;28;19912;-60
2021/05/17 13:18:55;;;;;;;;;;;14.10;99.90;;;;;;5089941;28;20280;-59
2021/05/17 13:22:10;;;;;;;;;;;13.80;99.90;;;;;;5089930;28;19916;-58
2021/05/17 13:32:31;;;;;;;;;;;13.80;99.90;;;;;;5087098;28;19932;-59
2021/05/17 13:34:57;;;;;;;;;;;13.90;99.90;;;;;;5088325;28;20369;-59
2021/05/17 13:37:23;;;;;;;;;;;14.00;99.90;;;;;;5089593;28;19939;-59
2021/05/17 13:39:49;;;;;;;;;;;14.00;99.90;;;;;;5071221;28;19912;-59
2021/05/17 13:42:15;;;;;;;;;;;13.90;99.90;;;;;;5095210;28;20393;-59
2021/05/17 13:44:41;;;;;;;;;;;13.70;99.90;;;;;;5099702;28;19920;-59
2021/05/17 13:47:07;;;;;;;;;;;13.70;99.90;;;;;;5095596;28;19913;-59
2021/05/17 13:49:33;;;;;;;;;;;14.00;99.90;;;;;;5095810;28;19916;-59
2021/05/17 13:51:59;;;;;;;;;;;14.30;99.90;;;;;;5094847;28;19912;-59
2021/05/17 13:54:25;;;;;;;;;;;14.40;99.90;;;;;;5096035;28;19912;-58
2021/05/17 13:56:51;;;;;;;;;;;14.20;99.90;;;;;;5094763;28;19919;-60
2021/05/17 13:59:17;;;;;;;;;;;14.10;99.90;;;;;;5095936;28;19919;-59
2021/05/17 14:01:43;;;;;;;;;;;14.10;99.90;;;;;;5093485;28;20392;-59
2021/05/17 14:04:09;;;;;;;;;;;14.20;99.90;;;;;;5095926;28;19916;-59
2021/05/17 14:06:36;;;;;;;;;;;14.30;99.90;;;;;;5082050;28;19943;-59
2021/05/17 14:09:05;;;;;;;;;;;13.90;99.90;;;;;;5094930;28;19916;-59
2021/05/17 14:11:31;;;;;;;;;;;14.10;99.90;;;;;;5075365;28;19909;-59
2021/05/17 14:13:57;;;;;;;;;;;13.80;99.90;;;;;;5095665;28;19923;-59
2021/05/17 14:16:23;;;;;;;;;;;13.70;99.90;;;;;;5095179;28;19947;-59
2021/05/17 14:18:49;;;;;;;;;;;13.80;99.90;;;;;;5094388;28;19982;-58
2021/05/17 14:21:15;;;;;;;;;;;13.80;99.90;;;;;;5090667;28;19920;-59
2021/05/17 14:23:40;;;;;;;;;;;14.00;99.90;;;;;;5085775;28;20369;-59
2021/05/17 14:26:06;;;;;;;;;;;13.80;99.90;;;;;;5084503;28;20395;-59
2021/05/17 14:28:32;;;;;;;;;;;13.50;99.90;;;;;;5089787;28;19966;-59
2021/05/17 14:30:58;;;;;;;;;;;13.40;99.90;;;;;;5081314;28;19917;-59
2021/05/17 14:33:24;;;;;;;;;;;13.50;99.90;;;;;;5084068;28;19932;-59
2021/05/17 14:35:50;;;;;;;;;;;13.80;99.90;;;;;;5084470;28;19916;-59
2021/05/17 14:38:16;;;;;;;;;;;14.00;99.90;;;;;;5080394;28;19923;-59
2021/05/17 14:40:42;;;;;;;;;;;14.00;99.90;;;;;;5084476;28;19916;-59
2021/05/17 14:43:08;;;;;;;;;;;14.10;99.90;;;;;;5090952;28;19961;-59
2021/05/17 14:45:34;;;;;;;;;;;14.20;99.90;;;;;;5076462;28;19913;-60
2021/05/17 14:48:00;;;;;;;;;;;14.30;99.90;;;;;;5091658;28;19920;-59
2021/05/17 14:50:26;;;;;;;;;;;14.20;99.90;;;;;;5090540;28;20391;-58
2021/05/17 14:52:53;;;;;;;;;;;14.10;99.90;;;;;;5088067;28;20014;-59
2021/05/17 14:55:18;;;;;;;;;;;14.20;99.90;;;;;;5080723;28;20390;-59
2021/05/17 14:57:44;;;;;;;;;;;14.20;99.90;;;;;;5085046;28;19912;-59
2021/05/17 15:00:14;;;;;;;;;;;14.20;99.90;;;;;;5082007;28;19970;-60
2021/05/17 15:02:40;;;;;;;;;;;14.20;99.90;;;;;;5075096;28;19920;-60
2021/05/17 15:05:06;;;;;;;;;;;14.20;99.90;;;;;;5081880;28;19923;-60